4TX9 weather

Medical Center Hospital Heliport
San Antonio, Texas, United States

Public forecast

Using degrees Fahrenheit for public forecast. Weather courtesy of forecast.io.

Closest aviation weather report (METAR) to Medical Center Hospital Heliport

Closest report is San Antonio International Airport, 5.9 nm (11.0 km) ENE. Retrieved 2020/04/08 17:51 UTC (58 minutes ago):

KSAT 081751Z VRB05KT 10SM SCT026 BKN250 31/23 A2993 RMK AO2 SLP117 T03060228 10306 20217 58010

Closest aviation forecast (TAF) to Medical Center Hospital Heliport

Closest forecast is San Antonio International Airport, 5.9 nm (11.0 km) ENE. Retrieved 2020/04/08 18:22 UTC (27 minutes ago):

TAF KSAT 081720Z 0818/0924 23007KT P6SM VCSH SCT040 BKN250 FM090100 16005KT P6SM BKN250 FM090900 VRB03KT 5SM BR OVC015 FM091400 VRB04KT P6SM SCT015 OVC100